createdAt,value
2023-03-21T00:00:41.151Z,8.78
2023-03-21T00:03:44.241Z,8.79
2023-03-21T00:06:47.509Z,8.77
2023-03-21T00:09:50.876Z,8.78
2023-03-21T00:12:58.664Z,8.83
2023-03-21T00:19:38.523Z,9.00
2023-03-21T00:22:42.458Z,9.15
2023-03-21T00:25:46.928Z,9.23
2023-03-21T00:28:50.950Z,9.29
2023-03-21T00:31:56.532Z,9.28
2023-03-21T00:35:23.330Z,9.34
2023-03-21T00:38:25.733Z,9.41
2023-03-21T00:41:42.644Z,9.45
2023-03-21T00:44:45.953Z,9.49
2023-03-21T00:47:49.354Z,9.55
2023-03-21T00:50:57.226Z,9.55
2023-03-21T00:54:01.049Z,9.52
2023-03-21T00:57:05.550Z,9.52
2023-03-21T01:00:10.838Z,9.51
2023-03-21T01:03:24.301Z,9.50
2023-03-21T01:06:28.246Z,9.51
2023-03-21T01:09:30.796Z,9.53
2023-03-21T01:12:34.411Z,9.57
2023-03-21T01:15:45.351Z,9.56
2023-03-21T01:18:49.132Z,9.58
2023-03-21T01:21:59.553Z,9.56
2023-03-21T01:25:21.209Z,9.60
2023-03-21T01:28:28.626Z,9.52
2023-03-21T01:31:31.855Z,9.50
2023-03-21T01:34:34.376Z,9.51
2023-03-21T01:37:37.361Z,9.49
2023-03-21T01:40:41.639Z,9.50
2023-03-21T01:43:47.391Z,9.49
2023-03-21T01:47:09.277Z,9.46
2023-03-21T01:50:14.809Z,9.48
2023-03-21T01:53:22.283Z,9.49
2023-03-21T01:56:31.052Z,9.58
2023-03-21T01:59:50.413Z,9.65
2023-03-21T02:03:06.124Z,9.68
2023-03-21T02:06:22.852Z,9.73
2023-03-21T02:09:32.066Z,9.78
2023-03-21T02:12:35.262Z,9.84
2023-03-21T02:15:42.047Z,9.82
2023-03-21T02:18:54.378Z,9.82
2023-03-21T02:22:22.273Z,9.87
2023-03-21T02:25:37.646Z,9.89
2023-03-21T02:29:07.954Z,9.87
2023-03-21T02:32:37.822Z,9.87
2023-03-21T02:36:14.423Z,9.83
2023-03-21T02:39:27.020Z,9.81
2023-03-21T02:42:59.441Z,9.80
2023-03-21T02:46:16.650Z,9.77
2023-03-21T02:49:40.190Z,9.79
2023-03-21T02:52:47.180Z,9.79
2023-03-21T02:55:53.005Z,9.77
2023-03-21T02:58:57.737Z,9.74
2023-03-21T03:02:00.789Z,9.72
2023-03-21T03:05:20.724Z,9.73
2023-03-21T03:08:50.173Z,9.75
2023-03-21T03:12:17.375Z,9.74
2023-03-21T03:15:45.678Z,9.80
2023-03-21T03:19:01.363Z,9.80
2023-03-21T03:22:10.348Z,9.80
2023-03-21T03:25:23.161Z,9.77
2023-03-21T03:28:39.195Z,9.80
2023-03-21T03:31:54.554Z,9.84
2023-03-21T03:34:58.861Z,9.88
2023-03-21T03:38:06.949Z,9.87
2023-03-21T03:41:19.130Z,9.93
2023-03-21T03:44:26.060Z,9.91
2023-03-21T03:47:50.883Z,9.88
2023-03-21T03:51:13.662Z,9.87
2023-03-21T03:54:23.058Z,9.85
2023-03-21T03:57:27.737Z,9.84
2023-03-21T04:00:45.759Z,9.84
2023-03-21T04:03:54.492Z,9.80
2023-03-21T04:07:03.535Z,9.78
2023-03-21T04:10:07.091Z,9.80
2023-03-21T04:13:13.717Z,9.80
2023-03-21T04:16:19.359Z,9.77
2023-03-21T04:19:22.834Z,9.75
2023-03-21T04:22:27.085Z,9.72
2023-03-21T04:25:34.797Z,9.73
2023-03-21T04:28:39.830Z,9.69
2023-03-21T04:31:43.177Z,9.66
2023-03-21T04:34:54.287Z,9.62
2023-03-21T04:37:57.533Z,9.57
2023-03-21T04:41:00.874Z,9.56
2023-03-21T04:44:05.128Z,9.55
2023-03-21T04:47:08.621Z,9.58
2023-03-21T04:50:13.776Z,9.52
2023-03-21T04:53:18.911Z,9.49
2023-03-21T04:56:23.584Z,9.54
2023-03-21T04:59:26.664Z,9.47
2023-03-21T05:02:29.985Z,9.45
2023-03-21T05:05:33.890Z,9.48
2023-03-21T05:08:37.311Z,9.56
2023-03-21T05:11:41.907Z,9.69
2023-03-21T05:14:45.042Z,9.81
2023-03-21T05:17:51.045Z,9.87
2023-03-21T05:20:55.426Z,9.91
2023-03-21T05:24:03.655Z,9.95
2023-03-21T05:27:06.854Z,9.98
2023-03-21T05:30:18.709Z,9.99
2023-03-21T05:33:23.021Z,10.05
2023-03-21T05:36:28.657Z,10.13
2023-03-21T05:39:35.028Z,10.25
2023-03-21T05:42:38.907Z,10.48
2023-03-21T05:45:49.822Z,10.71
2023-03-21T05:48:58.989Z,10.88
2023-03-21T05:52:10.620Z,10.85
2023-03-21T05:55:18.722Z,10.84
2023-03-21T05:58:23.686Z,11.05
2023-03-21T06:01:28.659Z,11.51
2023-03-21T06:04:36.141Z,11.92
2023-03-21T06:07:40.219Z,12.27
2023-03-21T06:10:50.175Z,12.52
2023-03-21T06:13:55.764Z,12.77
2023-03-21T06:17:03.711Z,12.87
2023-03-21T06:20:21.729Z,12.74
2023-03-21T06:23:31.135Z,12.62
2023-03-21T06:26:34.999Z,12.59
2023-03-21T06:29:41.997Z,14.60
2023-03-21T06:32:51.296Z,16.57
2023-03-21T06:36:01.177Z,17.49
2023-03-21T06:39:08.811Z,16.89
2023-03-21T06:42:15.666Z,17.03
2023-03-21T06:45:25.706Z,17.83
2023-03-21T06:48:29.132Z,19.02
2023-03-21T06:51:36.700Z,20.37
2023-03-21T06:54:43.214Z,20.56
2023-03-21T06:57:59.368Z,21.29
2023-03-21T07:01:05.742Z,20.76
2023-03-21T07:04:10.998Z,19.50
2023-03-21T07:07:16.735Z,20.88
2023-03-21T07:10:24.276Z,22.32
2023-03-21T07:13:29.085Z,22.90
2023-03-21T07:16:38.971Z,23.38
2023-03-21T07:19:45.707Z,21.60
2023-03-21T07:22:56.676Z,20.00
2023-03-21T07:26:02.577Z,19.23
2023-03-21T07:29:07.269Z,18.42
2023-03-21T07:32:17.881Z,18.43
2023-03-21T07:35:22.093Z,18.49
2023-03-21T07:38:26.484Z,17.74
2023-03-21T07:41:31.639Z,17.44
2023-03-21T07:44:43.904Z,19.63
2023-03-21T07:47:48.055Z,22.01
2023-03-21T07:50:52.117Z,23.20
2023-03-21T07:53:57.085Z,22.82
2023-03-21T07:57:05.737Z,22.08
2023-03-21T08:00:22.898Z,21.30
2023-03-21T08:03:29.367Z,22.18
2023-03-21T08:06:33.747Z,21.88
2023-03-21T08:09:39.157Z,21.07
2023-03-21T08:12:42.961Z,21.90
2023-03-21T08:15:47.263Z,23.67
2023-03-21T08:18:53.651Z,23.74
2023-03-21T08:22:01.646Z,23.94
2023-03-21T08:25:10.266Z,24.66
2023-03-21T08:28:13.839Z,25.24
2023-03-21T08:31:18.148Z,24.86
2023-03-21T08:34:24.031Z,24.85
2023-03-21T08:37:28.822Z,25.83
2023-03-21T08:40:34.083Z,25.94
2023-03-21T08:43:38.458Z,26.38
2023-03-21T08:46:54.845Z,26.65
2023-03-21T08:49:59.773Z,26.53
2023-03-21T08:53:03.427Z,26.32
2023-03-21T08:56:06.897Z,26.18
2023-03-21T08:59:10.223Z,26.49
2023-03-21T09:02:18.667Z,26.10
2023-03-21T09:05:23.582Z,26.39
2023-03-21T09:08:33.304Z,26.25
2023-03-21T09:11:36.958Z,26.29
2023-03-21T09:14:45.005Z,25.64
2023-03-21T09:17:53.100Z,23.97
2023-03-21T09:21:01.804Z,22.59
2023-03-21T09:24:12.661Z,21.34
2023-03-21T09:27:23.075Z,20.82
2023-03-21T09:30:35.666Z,22.54
2023-03-21T09:33:41.329Z,23.29
2023-03-21T09:36:48.806Z,23.30
2023-03-21T09:39:52.217Z,23.25
2023-03-21T09:43:05.753Z,23.53
2023-03-21T09:46:32.797Z,23.82
2023-03-21T09:49:54.567Z,23.86
2023-03-21T09:53:06.207Z,24.28
2023-03-21T09:56:15.595Z,24.43
2023-03-21T09:59:33.600Z,24.17
2023-03-21T10:02:50.743Z,24.62
2023-03-21T10:06:05.008Z,23.93
2023-03-21T10:09:30.054Z,24.41
2023-03-21T10:12:42.611Z,24.28
2023-03-21T10:16:05.736Z,24.32
2023-03-21T10:19:13.824Z,23.26
2023-03-21T10:22:16.674Z,22.66
2023-03-21T10:25:54.787Z,22.34
2023-03-21T10:28:59.841Z,23.02
2023-03-21T10:32:04.193Z,23.20
2023-03-21T10:35:13.472Z,23.70
2023-03-21T10:38:20.332Z,23.47
2023-03-21T10:41:24.003Z,23.75
2023-03-21T10:44:36.963Z,23.67
2023-03-21T10:47:43.027Z,24.03
2023-03-21T10:50:56.386Z,23.83
2023-03-21T10:54:05.544Z,23.84
2023-03-21T10:57:20.024Z,23.91
2023-03-21T11:00:29.801Z,23.76
2023-03-21T11:03:49.896Z,23.79
2023-03-21T11:06:57.114Z,23.95
2023-03-21T11:10:14.610Z,23.78
2023-03-21T11:13:35.877Z,23.94
2023-03-21T11:16:43.466Z,23.70
2023-03-21T11:19:57.911Z,23.80
2023-03-21T11:23:03.804Z,23.51
2023-03-21T11:26:25.616Z,23.56
2023-03-21T11:29:45.727Z,23.75
2023-03-21T11:36:08.217Z,23.47
2023-03-21T11:39:28.207Z,23.37
2023-03-21T11:42:41.158Z,23.09
2023-03-21T11:46:06.480Z,22.98
2023-03-21T11:49:10.803Z,22.91
2023-03-21T11:52:40.193Z,22.97
2023-03-21T11:55:46.454Z,22.89
2023-03-21T12:03:20.037Z,21.61
2023-03-21T12:06:36.774Z,21.86
2023-03-21T12:09:51.226Z,21.78
2023-03-21T12:13:17.172Z,21.82
2023-03-21T12:16:24.360Z,21.82
2023-03-21T12:19:47.327Z,21.73
2023-03-21T12:23:01.719Z,21.81
2023-03-21T12:26:31.199Z,21.72
2023-03-21T12:29:49.913Z,21.37
2023-03-21T12:33:28.636Z,21.01
2023-03-21T12:36:41.417Z,20.41
2023-03-21T12:39:50.001Z,20.18
2023-03-21T12:43:26.746Z,20.27
2023-03-21T12:46:53.825Z,20.25
2023-03-21T12:50:11.844Z,20.12
2023-03-21T12:53:51.732Z,19.83
2023-03-21T12:57:03.727Z,19.55
2023-03-21T13:00:22.921Z,19.49
2023-03-21T13:03:40.587Z,19.33
2023-03-21T13:06:56.040Z,19.25
2023-03-21T13:10:02.271Z,19.38
2023-03-21T13:13:25.036Z,19.70
2023-03-21T13:17:01.294Z,19.87
2023-03-21T13:20:20.391Z,20.16
2023-03-21T13:23:38.021Z,20.29
2023-03-21T13:26:49.858Z,20.47
2023-03-21T13:30:14.443Z,20.48
2023-03-21T13:33:30.251Z,20.09
2023-03-21T13:36:42.785Z,19.75
2023-03-21T13:39:50.791Z,19.33
2023-03-21T13:42:59.685Z,19.18
2023-03-21T13:46:15.946Z,18.99
2023-03-21T13:49:37.066Z,19.01
2023-03-21T13:53:02.058Z,19.09
2023-03-21T13:56:14.553Z,18.91
2023-03-21T13:59:41.972Z,18.85
2023-03-21T14:03:03.790Z,18.74
2023-03-21T14:06:11.129Z,18.82
2023-03-21T14:09:29.726Z,18.74
2023-03-21T14:12:43.914Z,18.62
2023-03-21T14:15:59.135Z,18.40
2023-03-21T14:19:13.104Z,18.30
2023-03-21T14:22:18.484Z,18.21
2023-03-21T14:25:31.423Z,18.20
2023-03-21T14:28:43.195Z,18.36
2023-03-21T14:31:50.855Z,18.52
2023-03-21T14:35:01.807Z,18.61
2023-03-21T14:38:09.624Z,18.55
2023-03-21T14:41:27.253Z,18.44
2023-03-21T14:44:53.411Z,18.26
2023-03-21T14:48:23.718Z,18.19
2023-03-21T14:51:38.682Z,18.10
2023-03-21T14:54:45.042Z,18.01
2023-03-21T14:57:56.751Z,17.92
2023-03-21T15:01:08.002Z,17.86
2023-03-21T15:04:23.128Z,17.83
2023-03-21T15:07:32.523Z,17.76
2023-03-21T15:10:38.828Z,17.72
2023-03-21T15:13:52.759Z,17.66
2023-03-21T15:17:05.334Z,17.59
2023-03-21T15:20:16.118Z,17.51
2023-03-21T15:23:36.021Z,17.39
2023-03-21T15:26:40.277Z,17.31
2023-03-21T15:29:45.820Z,17.23
2023-03-21T15:32:52.727Z,17.10
2023-03-21T15:36:10.078Z,17.07
2023-03-21T15:39:24.110Z,16.99
2023-03-21T15:42:38.883Z,16.92
2023-03-21T15:45:58.766Z,16.84
2023-03-21T15:49:17.771Z,16.77
2023-03-21T15:52:28.216Z,16.66
2023-03-21T15:55:48.494Z,16.59
2023-03-21T15:59:05.869Z,16.49
2023-03-21T16:02:18.358Z,16.42
2023-03-21T16:05:30.754Z,16.35
2023-03-21T16:08:46.315Z,16.29
2023-03-21T16:12:00.287Z,16.21
2023-03-21T16:15:07.731Z,16.14
2023-03-21T16:18:17.770Z,16.04
2023-03-21T16:21:32.077Z,15.95
2023-03-21T16:24:39.767Z,15.84
2023-03-21T16:27:45.797Z,15.77
2023-03-21T16:30:57.941Z,15.69
2023-03-21T16:34:10.675Z,15.52
2023-03-21T16:37:25.256Z,15.45
2023-03-21T16:40:39.817Z,15.35
2023-03-21T16:43:48.822Z,15.28
2023-03-21T16:47:02.175Z,15.20
2023-03-21T16:50:27.771Z,15.07
2023-03-21T16:53:39.158Z,14.99
2023-03-21T16:56:51.991Z,14.85
2023-03-21T17:00:03.856Z,14.77
2023-03-21T17:03:24.784Z,14.67
2023-03-21T17:06:30.699Z,14.59
2023-03-21T17:09:48.199Z,14.51
2023-03-21T17:12:53.757Z,14.41
2023-03-21T17:15:57.118Z,14.31
2023-03-21T17:19:01.161Z,14.20
2023-03-21T17:22:14.549Z,14.10
2023-03-21T17:25:20.111Z,14.01
2023-03-21T17:28:24.079Z,13.92
2023-03-21T17:31:36.418Z,13.83
2023-03-21T17:34:40.725Z,13.76
2023-03-21T17:37:53.971Z,13.71
2023-03-21T17:41:01.737Z,13.64
2023-03-21T17:44:05.835Z,13.58
2023-03-21T17:47:15.742Z,13.48
2023-03-21T17:50:23.816Z,13.41
2023-03-21T17:53:40.669Z,13.36
2023-03-21T17:56:51.839Z,13.33
2023-03-21T18:00:14.687Z,13.26
2023-03-21T18:03:19.726Z,13.18
2023-03-21T18:06:29.698Z,13.15
2023-03-21T18:09:34.472Z,13.06
2023-03-21T18:12:59.148Z,12.98
2023-03-21T18:16:21.918Z,12.90
2023-03-21T18:19:28.737Z,12.79
2023-03-21T18:22:43.780Z,12.61
2023-03-21T18:25:47.166Z,12.42
2023-03-21T18:32:24.125Z,12.09
2023-03-21T18:35:35.012Z,11.95
2023-03-21T18:38:42.354Z,11.80
2023-03-21T18:41:48.255Z,11.67
2023-03-21T18:45:07.676Z,11.56
2023-03-21T18:48:21.678Z,11.43
2023-03-21T18:51:36.755Z,11.34
2023-03-21T18:54:45.336Z,11.22
2023-03-21T18:58:02.763Z,11.16
2023-03-21T19:01:06.493Z,11.06
2023-03-21T19:04:21.465Z,10.97
2023-03-21T19:07:48.628Z,10.87
2023-03-21T19:10:54.510Z,10.78
2023-03-21T19:14:02.719Z,10.69
2023-03-21T19:20:52.621Z,10.49
2023-03-21T19:24:26.541Z,10.34
2023-03-21T19:27:38.945Z,10.21
2023-03-21T19:30:49.660Z,10.12
2023-03-21T19:33:54.277Z,10.03
2023-03-21T19:37:11.153Z,9.96
2023-03-21T19:40:15.766Z,9.85
2023-03-21T19:43:33.085Z,9.77
2023-03-21T19:46:52.759Z,9.74
2023-03-21T19:50:45.580Z,9.65
2023-03-21T19:53:34.697Z,9.54
2023-03-21T19:56:50.677Z,9.48
2023-03-21T20:00:01.278Z,9.45
2023-03-21T20:03:10.807Z,9.34
2023-03-21T20:06:25.136Z,9.28
2023-03-21T20:09:50.786Z,9.25
2023-03-21T20:13:02.963Z,9.20
2023-03-21T20:16:14.009Z,9.08
2023-03-21T20:19:20.788Z,9.08
2023-03-21T20:23:05.245Z,9.07
2023-03-21T20:26:14.780Z,9.06
2023-03-21T20:32:54.850Z,9.04
2023-03-21T20:39:42.687Z,9.06
2023-03-21T20:42:48.666Z,9.08
2023-03-21T20:46:08.174Z,9.09
2023-03-21T20:49:16.982Z,9.04
2023-03-21T20:53:00.881Z,8.99
2023-03-21T20:55:50.078Z,8.96
2023-03-21T20:59:14.588Z,8.95
2023-03-21T21:02:27.713Z,8.95
2023-03-21T21:05:38.837Z,8.87
2023-03-21T21:08:42.613Z,8.84
2023-03-21T21:12:10.321Z,8.84
2023-03-21T21:15:17.050Z,8.83
2023-03-21T21:18:24.239Z,8.83
2023-03-21T21:21:30.761Z,8.82
2023-03-21T21:24:41.888Z,8.81
2023-03-21T21:27:54.774Z,8.78
2023-03-21T21:31:10.762Z,8.79
2023-03-21T21:34:20.774Z,8.74
2023-03-21T21:37:31.774Z,8.73
2023-03-21T21:40:34.539Z,8.72
2023-03-21T21:43:38.117Z,8.72
2023-03-21T21:46:46.828Z,8.73
2023-03-21T21:49:51.129Z,8.75
2023-03-21T21:53:03.872Z,8.76
2023-03-21T21:56:07.480Z,8.79
2023-03-21T21:59:11.534Z,8.79
2023-03-21T22:02:16.864Z,8.78
2023-03-21T22:05:27.874Z,8.80
2023-03-21T22:08:32.966Z,8.80
2023-03-21T22:11:37.820Z,8.82
2023-03-21T22:14:41.873Z,8.83
2023-03-21T22:17:46.754Z,9.02
2023-03-21T22:20:50.710Z,9.05
2023-03-21T22:23:54.107Z,9.08
2023-03-21T22:26:58.198Z,9.16
2023-03-21T22:30:04.808Z,9.20
2023-03-21T22:33:09.990Z,9.20
2023-03-21T22:36:14.385Z,9.17
2023-03-21T22:39:26.741Z,9.07
2023-03-21T22:42:29.898Z,9.00
2023-03-21T22:45:34.849Z,8.92
2023-03-21T22:48:38.653Z,8.85
2023-03-21T22:51:42.270Z,8.83
2023-03-21T22:54:49.250Z,8.84
2023-03-21T22:57:52.100Z,8.85
2023-03-21T23:01:00.949Z,8.89
2023-03-21T23:04:04.475Z,8.97
2023-03-21T23:07:13.687Z,8.93
2023-03-21T23:10:17.722Z,8.89
2023-03-21T23:13:23.834Z,8.82
2023-03-21T23:16:29.045Z,8.77
2023-03-21T23:19:32.464Z,8.71
2023-03-21T23:22:36.129Z,8.58
2023-03-21T23:25:42.336Z,8.42
2023-03-21T23:28:45.821Z,8.32
2023-03-21T23:31:48.772Z,8.24
2023-03-21T23:34:51.341Z,8.19
2023-03-21T23:37:54.742Z,8.07
2023-03-21T23:41:00.137Z,7.90
2023-03-21T23:44:04.519Z,7.91
2023-03-21T23:47:07.095Z,7.76
2023-03-21T23:50:10.897Z,7.69
2023-03-21T23:53:14.084Z,7.64
2023-03-21T23:56:25.780Z,7.59
2023-03-21T23:59:30.621Z,7.59
